»·PEaware :: N602CN KSAN-KPSP

N602CN :: KSAN-KPSP

FLIGHT INFORMATION

Flight Status: Arrived
Operator: Privately registered:
United States
More flights under this callsign
Pilot: Henderson P. (1210)
Aircraft: BEECH AIRCRAFT SUPER KING AIR COMMUTER
(BE20)
More flights by this aircraft type
Origin: KSAN San Diego Intl-Lindbergh
United States
Destination: KPSP Palm Springs Intl
United States
More flights between these airports :: More routes between these airports
Route: +JLI V208 TRM
File this flight plan on PilotEdge
Remarks:
Altitude:
(Current/Filed)
15,000ft
Speed:
(Current/Filed)
279kts
Departed: 30-Oct-19 02:36 PM
Arrived: 30-Oct-19 03:08 PM
Distance/Time
Traveled:
74nm/0:31
Distance/Time
To Go:
Arrived

Flight Plot

Page will automatically refresh every two minutes.


Map Options




Map Legend


Flown Route
Filed Route
Departure Airport
Arrival Airport
Navaid (VOR, NDB)
Fix

Horizontal Profiles

Position Reports

Time Latitude Longitude Heading Altitude Ground
Speed
30-Oct-19 14:15 32.733795 -117.178690 141 19ft 0kts
30-Oct-19 14:16 32.733795 -117.178690 141 19ft 0kts
30-Oct-19 14:17 32.733795 -117.178690 141 19ft 0kts
30-Oct-19 14:18 32.733795 -117.178690 141 19ft 0kts
30-Oct-19 14:19 32.733795 -117.178690 141 19ft 0kts
30-Oct-19 14:20 32.733795 -117.178690 141 19ft 0kts
30-Oct-19 14:21 32.733795 -117.178690 141 19ft 0kts
30-Oct-19 14:22 32.733795 -117.178690 141 19ft 0kts
30-Oct-19 14:23 32.733793 -117.178688 141 19ft 0kts
30-Oct-19 14:24 32.733792 -117.178687 141 19ft 0kts
30-Oct-19 14:25 32.733789 -117.178684 141 19ft 0kts
30-Oct-19 14:26 32.733787 -117.178682 141 19ft 0kts
30-Oct-19 14:27 32.733784 -117.178679 141 19ft 0kts
30-Oct-19 14:28 32.733781 -117.178677 141 19ft 0kts
30-Oct-19 14:29 32.733779 -117.178674 141 19ft 0kts
30-Oct-19 14:30 32.733750 -117.178661 180 19ft 0kts
30-Oct-19 14:31 32.733511 -117.179505 207 19ft 0kts
30-Oct-19 14:32 32.733490 -117.179516 201 19ft 0kts
30-Oct-19 14:33 32.732974 -117.179690 195 19ft 12kts
30-Oct-19 14:34 32.730967 -117.175518 147 19ft 0kts
30-Oct-19 14:35 32.731870 -117.182760 284 19ft 101kts
30-Oct-19 14:36 32.743691 -117.229595 288 1924ft 158kts
30-Oct-19 14:37 32.716589 -117.263449 191 4240ft 182kts
30-Oct-19 14:38 32.669617 -117.266160 132 6628ft 168kts
30-Oct-19 14:39 32.655590 -117.213099 101 8781ft 174kts
30-Oct-19 14:40 32.644378 -117.152242 101 9988ft 223kts
30-Oct-19 14:41 32.629365 -117.072253 101 9984ft 262kts
30-Oct-19 14:42 32.659584 -117.003866 33 10631ft 251kts
30-Oct-19 14:43 32.717059 -116.958605 32 11459ft 243kts
30-Oct-19 14:44 32.771868 -116.912662 32 12454ft 239kts
30-Oct-19 14:45 32.826694 -116.867673 32 13455ft 240kts
30-Oct-19 14:46 32.881012 -116.820997 34 14456ft 242kts
30-Oct-19 14:47 32.934407 -116.769625 36 15017ft 256kts
30-Oct-19 14:48 32.991522 -116.714399 35 15016ft 270kts
30-Oct-19 14:49 33.051499 -116.659487 34 15026ft 272kts
30-Oct-19 14:50 33.112001 -116.604602 34 15037ft 274kts
30-Oct-19 14:51 33.175712 -116.554873 28 15049ft 273kts
30-Oct-19 14:52 33.239090 -116.504780 32 14969ft 277kts
30-Oct-19 14:53 33.301061 -116.451095 33 14932ft 274kts
30-Oct-19 14:54 33.362276 -116.396505 32 14946ft 273kts
30-Oct-19 14:55 33.424112 -116.344249 31 14954ft 272kts
30-Oct-19 14:56 33.478963 -116.296612 32 14957ft 274kts
30-Oct-19 14:57 33.538566 -116.243737 32 13888ft 264kts
30-Oct-19 14:59 33.597850 -116.191246 29 12058ft 262kts
30-Oct-19 15:00 33.658189 -116.213631 307 10205ft 259kts
30-Oct-19 15:01 33.692480 -116.287838 301 8012ft 247kts
30-Oct-19 15:02 33.698464 -116.368247 301 5818ft 238kts
30-Oct-19 15:03 33.752085 -116.399502 317 4015ft 212kts
30-Oct-19 15:04 33.762392 -116.450949 282 3828ft 106kts
30-Oct-19 15:05 33.784285 -116.469273 335 2066ft 95kts
30-Oct-19 15:06 33.803879 -116.484567 320 1037ft 93kts
30-Oct-19 15:07 33.822897 -116.501635 320 485ft 84kts
30-Oct-19 15:08 33.830497 -116.507104 351 481ft 0kts
30-Oct-19 15:09 33.831534 -116.505465 143 481ft 11kts
30-Oct-19 15:10 33.825304 -116.499912 141 481ft 26kts
30-Oct-19 15:11 33.823390 -116.497660 52 481ft 0kts
30-Oct-19 15:12 33.823390 -116.497660 52 481ft 0kts
30-Oct-19 15:13 33.823390 -116.497660 52 481ft 0kts
30-Oct-19 15:14 33.823390 -116.497660 52 481ft 0kts
30-Oct-19 15:15 33.823390 -116.497660 52 481ft 0kts
30-Oct-19 15:16 33.823390 -116.497660 52 481ft 0kts
30-Oct-19 15:16 33.823390 -116.497660 52 481ft 0kts
30-Oct-19 15:18 33.823390 -116.497660 52 481ft 0kts
30-Oct-19 15:19 33.823390 -116.497660 52 481ft 0kts
30-Oct-19 15:20 33.823390 -116.497660 52 481ft 0kts
30-Oct-19 15:20 33.823390 -116.497660 52 481ft 0kts
30-Oct-19 15:22 33.823390 -116.497660 52 481ft 0kts

Navigation Log

Ident Type
Flight plan parsing failed, navigation log unavailable